Aviation Digital Data Service (ADDS)

Output produced by TAFs form (0708 UTC 06 July 2015)
found at http://www.aviationweather.gov/adds/tafs/
 
KRIC 060530Z 0606/0706 14004KT P6SM BKN005 BKN080 
     TEMPO 0606/0608 4SM -RA BR BKN015 
     FM060800 15004KT 4SM BR OVC005 
     FM061400 19007KT P6SM SCT010 OVC025 
     FM061700 19010KT P6SM VCSH BKN050 
     FM070000 18005KT P6SM BKN100